x

South Bass Island, Oh (sbio1) Weather Station

3:00pm - Tue 23rd Aug 2016 All times are CDT. -5 hours from GMT.

  • Wind
    2mph
  • Air Temp 78°f
  • Sea Pressure 1023.6mb
  • South Bass Island, Oh
  • South Bass Island, Oh

More Historic Weather Station data

Upgrade to MSW Pro to gain access to the past 30 days of data for over 8000 Wavebouys and Weather Stations around the globe.

Join Pro

Comparision Forecast

View Surf forecast
   
Tue 08/23 3:00pm 2
mph
1023.6mb 78f
2:00pm 6 8 mph 1024.4mb 77f
1:00pm 9 10 mph 1024.8mb 76f
12:00pm 8 9 mph 1025.3mb 75f
11:00am 5 9 mph 1025.4mb 74f
10:00am 7 11 mph 1025.7mb 73f
9:00am 8 13 mph 1025.4mb 71f
8:00am 6 10 mph 1025.5mb 70f
7:00am 6 10 mph 1025.5mb 69f
6:00am 8 9 mph 1025.3mb 68f
5:00am 8 9 mph 1024.8mb 68f
4:00am 7 8 mph 1024.5mb 68f
3:00am 11 13 mph 1024.4mb 69f
2:00am 13 14 mph 1024.1mb 69f
1:00am 13 14 mph 1023.9mb 70f
12:00am 14 16 mph 1023.3mb 70f
Mon 08/22 11:00pm 9 13 mph 1023.1mb 71f
10:00pm 10 11 mph 1022.9mb 72f
9:00pm 5 8 mph 1022.8mb 72f
8:00pm 6 9 mph 1022.4mb 73f
7:00pm 2 3 mph 1022.1mb 73f
6:00pm  -  1 mph 1021.9mb 78f
5:00pm 2 3 mph 1022mb 79f
4:00pm 3
mph
1022.1mb 76f
3:00pm 5 6 mph 1022.3mb 74f
2:00pm 2 3 mph 1022.5mb 73f
1:00pm 5 6 mph 1022.7mb 72f
12:00pm 6 7 mph 1022.8mb 72f
11:00am 3 5 mph 1022.6mb 72f
10:00am 3
mph
1022.3mb 71f
9:00am 3 6 mph 1021.7mb 68f
8:00am 5 6 mph 1021.3mb 69f
7:00am 3 5 mph 1020.4mb 66f
6:00am 5 7 mph 1019.6mb 66f
5:00am 10 15 mph 1018.8mb 68f
4:00am 11 13 mph 1018.2mb 68f
3:00am 14 15 mph 1017.8mb 69f
2:00am 11 14 mph 1017.4mb 69f
1:00am 16 18 mph 1017.2mb 69f
12:00am 17 18 mph 1016.6mb 70f
Sun 08/21 11:00pm 21 23 mph 1015.9mb 71f
10:00pm 24 28 mph 1015.1mb 71f
9:00pm 28 30 mph 1014.3mb 71f
8:00pm 29 32 mph 1013.3mb 72f
7:00pm 26 29 mph 1012.4mb 74f
6:00pm 25 28 mph 1011.9mb 75f
5:00pm 23 25 mph 1011.6mb 75f
4:00pm 21 24 mph 1011.2mb 75f
3:00pm 17 21 mph 1011mb 75f
2:00pm 22 25 mph 1010.9mb 75f
1:00pm 21 23 mph 1010.7mb 74f
12:00pm 17 20 mph 1010.6mb 72f
11:00am 15 16 mph 1010.3mb 71f
10:00am 17 20 mph 1010mb 70f
9:00am 18 22 mph 1009.4mb 69f
8:00am 22 24 mph 1009mb 69f
7:00am 23 24 mph 1008.3mb 69f
6:00am 23 26 mph 1007.3mb 70f
5:00am 22 24 mph 1006.4mb 70f
4:00am 22 23 mph 1005.9mb 71f
3:00am 23 26 mph 1005.2mb 73f
2:00am 24 26 mph 1004.7mb 73f
1:00am 22 26 mph 1004.5mb 73f
12:00am 23 28 mph 1004.3mb 73f
Sat 08/20 11:00pm 20 25 mph 1004.1mb 74f
10:00pm 26 31 mph 1004mb 76f
9:00pm 22 28 mph 1004.1mb 77f
8:00pm 24 28 mph 1003.4mb 76f
7:00pm 24 26 mph 1003.7mb 76f
6:00pm 31 34 mph 1004.1mb 75f
5:00pm 14 21 mph 1003.7mb 82f
4:00pm 17 20 mph 1004.3mb 83f
3:00pm 23 25 mph 1005.2mb 83f
2:00pm 18 23 mph 1006.2mb 83f
1:00pm 16 23 mph 1006.9mb 83f
12:00pm 18 22 mph 1007.8mb 82f
11:00am 13 18 mph 1008.4mb 80f
10:00am 11 15 mph 1008.8mb 79f
9:00am 11
mph
1009.4mb 77f
8:00am 9 13 mph 1010.1mb 75f
7:00am 7 13 mph 1010.5mb 74f
6:00am 6 8 mph 1010.9mb 74f
5:00am 7 9 mph 1011.1mb 73f
4:00am 11 13 mph 1011.3mb 74f
3:00am 8 11 mph 1011.4mb 74f
2:00am 10 11 mph 1011.5mb 75f
1:00am 14
mph
1012mb 75f
12:00am 14 15 mph 1012.3mb 76f
Fri 08/19 11:00pm 15 17 mph 1012.1mb 76f
10:00pm 10 13 mph 1011.8mb 76f